Ευχαριστούμε που συμβάλλετε στη διατήρηση της σελίδας μας.

Thank you for your donations, it really helps to maintain the page.


Στατιστικά Καιρού & Άλλα..









Δείκτης Πυρκαγιάς (FWI)

Καστελόκαμπος Ρίον more information Kastelokampos Rion


Κάμερα Ρομανού more information Romanos Cam


Ραντάρ Κεραυνών more information blitzortung!


Ραντάρ Βροχής more information rain snow radar


Επισκεφθείτε άλλες ιστοσελίδες καιρού μας:

Meteopatras.Eu in
Euweather NetworkMeteopatras.Eu in Euweather Network

Weather CloudWeather Cloud

PWS WeatherPWS Weather

Awekas NetWeather data from station Patra-Ketx

WunderGroundWeather data from station Patra-Ketx




Ιδιοκτησία και Επίβλεψη : Μουλάς Αντρέας

 Πάτρα, Ελλάδα - Γ.Πλάτος : 38°14'21" Β - Γ.Μήκος : 21°45'5" Α - Υψόμετρο : 56μ

Κοντινές Αναφορές METAR

Warning: A non-numeric value encountered in /storage/content/70/1007070/meteopatras.eu/public_html/weather/metar/metarDisplay.php on line 166 Warning: A non-numeric value encountered in /storage/content/70/1007070/meteopatras.eu/public_html/weather/metar/metarDisplay.php on line 166 Warning: A non-numeric value encountered in /storage/content/70/1007070/meteopatras.eu/public_html/weather/metar/metarDisplay.php on line 166 Warning: A non-numeric value encountered in /storage/content/70/1007070/meteopatras.eu/public_html/weather/metar/metarDisplay.php on line 166 Warning: A non-numeric value encountered in /storage/content/70/1007070/meteopatras.eu/public_html/weather/metar/metarDisplay.php on line 166 Warning: A non-numeric value encountered in /storage/content/70/1007070/meteopatras.eu/public_html/weather/metar/metarDisplay.php on line 166 Warning: A non-numeric value encountered in /storage/content/70/1007070/meteopatras.eu/public_html/weather/metar/metarDisplay.php on line 166 Warning: A non-numeric value encountered in /storage/content/70/1007070/meteopatras.eu/public_html/weather/metar/metarDisplay.php on line 166
   
LGRX - Araxos
Ενημερώθηκε: 10-08-2020 22:50
Αίθριος  
Αίθριος  
   Άνεμος: Άπνοια
Άνεμος: Άπνοια
Θερμοκρασία: 28°C
Δείκτης θερμότητας: 28°C
Σημείο Δρόσου: 17°C
Υγρασία: 51%
Βαρόμετρο: 1013 hPa
Ορατότητα: More than 10 km
Λεπτομέρειες Σύννεφου: Αίθριος
LGRX 101950Z 00000KT CAVOK 28/17 Q1013
LGAD - Andravida
Ενημερώθηκε: 10-08-2020 22:50
Αίθριος  
Αίθριος  
   Άνεμος: ποικίλλει 5.6 km/h
Άνεμος: ποικίλλει 5.6 km/h
Θερμοκρασία: 25°C
Σημείο Δρόσου: 21°C
Υγρασία: 79%
Βαρόμετρο: 1013 hPa
Ορατότητα: More than 10 km
Λεπτομέρειες Σύννεφου: Αίθριος
LGAD 101950Z VRB03KT CAVOK 25/21 Q1013
LGZA - Zakinthos
Ενημερώθηκε: 10-08-2020 20:50
ΜΗ τρέχουσες
Αίθριος  
Αίθριος  
   Άνεμος: Βοράς 11.1 km/h
Άνεμος: Βοράς 11.1 km/h
Θερμοκρασία: 30°C
Δείκτης θερμότητας: 31°C
Σημείο Δρόσου: 18°C
Υγρασία: 49%
Βαρόμετρο: 1011 hPa
Ορατότητα: More than 10 km
Λεπτομέρειες Σύννεφου: Αίθριος
LGZA 101750Z 36006KT CAVOK 30/18 Q1011
LGKF - Kefallinia
Ενημερώθηκε: 10-08-2020 22:50
Αίθριος  
Αίθριος  
   Άνεμος: Βοράς 14.8 km/h
Άνεμος: Βοράς 14.8 km/h
Θερμοκρασία: 28°C
Δείκτης θερμότητας: 29°C
Σημείο Δρόσου: 18°C
Υγρασία: 55%
Βαρόμετρο: 1012 hPa
Ορατότητα: More than 10 km
Λεπτομέρειες Σύννεφου: Αίθριος
LGKF 101950Z 35008KT CAVOK 28/18 Q1012
LGPZ - Preveza
Ενημερώθηκε: 10-08-2020 22:50
Αίθριος  
Αίθριος  
   Άνεμος: Άπνοια
Άνεμος: Άπνοια
Θερμοκρασία: 25°C
Σημείο Δρόσου: 23°C
Υγρασία: 89%
Βαρόμετρο: 1013 hPa
Ορατότητα: More than 10 km
Λεπτομέρειες Σύννεφου: Αίθριος
LGPZ 101950Z 00000KT CAVOK 25/23 Q1013
LGKL - Kalamata
Ενημερώθηκε: 10-08-2020 22:50
  
  
   Άνεμος: ποικίλλει 1.9 km/h
Άνεμος: ποικίλλει 1.9 km/h
Θερμοκρασία: 24°C
Σημείο Δρόσου: 20°C
Υγρασία: 78%
Βαρόμετρο: 1013 hPa
LGKL 101950Z AUTO VRB01KT //// // ////// 24/20 Q1013 RE//
LGKR - Kerkyra
Ενημερώθηκε: 10-08-2020 22:50
Κυρίως Αίθριος  
Κυρίως Αίθριος  
   Άνεμος: ποικίλλει Άπνοια
Άνεμος: ποικίλλει Άπνοια
Θερμοκρασία: 28°C
Δείκτης θερμότητας: 29°C
Σημείο Δρόσου: 20°C
Υγρασία: 62%
Βαρόμετρο: 1011 hPa
Σύννεφα: Κυρίως Αίθριος
Ορατότητα: More than 10 km
Λεπτομέρειες Σύννεφου: Κυρίως Αίθριος 2500 ft
LGKR 101950Z /////KT 9999 FEW025 28/20 Q1011 NOSIG
LGIO - Iwannina
Ενημερώθηκε: 10-08-2020 22:50
  
  
   Άνεμος: ποικίλλει 1.9 km/h
Άνεμος: ποικίλλει 1.9 km/h
Θερμοκρασία: 21°C
Σημείο Δρόσου: 18°C
Υγρασία: 83%
Βαρόμετρο: 1016 hPa
LGIO 101950Z AUTO VRB01KT //// // ////// 21/18 Q1016 RE//
LGPZ - Leykada
Ενημερώθηκε: 10-08-2020 22:50
Αίθριος  
Αίθριος  
   Άνεμος: Άπνοια
Άνεμος: Άπνοια
Θερμοκρασία: 25°C
Σημείο Δρόσου: 23°C
Υγρασία: 89%
Βαρόμετρο: 1013 hPa
Ορατότητα: More than 10 km
Λεπτομέρειες Σύννεφου: Αίθριος
LGPZ 101950Z 00000KT CAVOK 25/23 Q1013
LGEL - Elefsina
Ενημερώθηκε: 10-08-2020 22:50
Αίθριος  
Αίθριος  
   Άνεμος: ΒΒΔ 9.3 km/h
Άνεμος: ΒΒΔ 9.3 km/h
Θερμοκρασία: 25°C
Σημείο Δρόσου: 13°C
Υγρασία: 47%
Βαρόμετρο: 1012 hPa
Ορατότητα: More than 10 km
Λεπτομέρειες Σύννεφου: Αίθριος
LGEL 101950Z 34005KT CAVOK 25/13 Q1012
LGKC - Kythira
Ενημερώθηκε: 10-08-2020 18:50
ΜΗ τρέχουσες
Αίθριος  
Αίθριος  
   Άνεμος: ΒΑ 25.9 km/h
Άνεμος: ΒΑ 25.9 km/h
Θερμοκρασία: 26°C
Σημείο Δρόσου: 19°C
Υγρασία: 65%
Βαρόμετρο: 1013 hPa
Ορατότητα: More than 10 km
Λεπτομέρειες Σύννεφου: Αίθριος
LGKC 101550Z 04014KT CAVOK 26/19 Q1013
LGIR - Hraklio
Ενημερώθηκε: 10-08-2020 22:50
Κυρίως Αίθριος  
Κυρίως Αίθριος  
   Άνεμος: Δύση 13 km/h
Άνεμος: Δύση 13 km/h
Θερμοκρασία: 26°C
Σημείο Δρόσου: 18°C
Υγρασία: 61%
Βαρόμετρο: 1012 hPa
Σύννεφα: Κυρίως Αίθριος
Ορατότητα: More than 10 km
Λεπτομέρειες Σύννεφου: Κυρίως Αίθριος 2500 ft
LGIR 101950Z 28007KT 9999 FEW025 26/18 Q1012 NOSIG

Script developed by  Saratoga-weather.org Προσαρμοσμένος για το πρότυπο του  Weerstation Leuven

Μπορείτε να βρείτε πληροφορίες καιρού μας και σε:

European Weather Network

WeatherCloud

Weather Underground

Δύκτιο Σταθμών Ελλάδας

AWEKAS

HAMweather, WeatherForYou, PWS Weather

MeteoPatras.Eu